Sible Hedingham, United Kingdom
Current Conditions -  °F | °C
As of 10:20 AM on Monday 22 Dec 2014 (Local Time) from EGSS Reporting Station
Broken Clouds Broken Clouds  
Wind Chill: 55°   Ceiling: 2800
Heat Index: 55°   Visibility: 6mi
Dew Point: 46°   Wind: 22mph
Humidity: 72%   Direction: 250°WSW
Pressure: 30"   Gusts: NA
Location:  51.98°N, 0.59°E
Report Text: EGSS 221020Z 25019KT 9999 BKN028 13/08 Q1016
Loading
Personal Weather Stations






























Interactive Weather Map New forecast layout! Learn more

10-Day Weather Forecast

Advertisements
Track Severe Weather on mobile